KBLH/BLH METAR and TAF weather

Enter ICAO airport designator
Station Type Date Time Source
KBLH METAR 2024/06/14 02:59 UTC NOAA

KBLH 140259Z AUTO 27009KT 10SM CLR 39/01 A2969 RMK AO2 WSHFT 0239 T03890011


Station Type Date Time Source
KBLH Decoded METAR 2024/06/14 02:59 UTC NOAA

BLYTHE AIRPORT, CA, United States (KBLH) 33-37N 114-43W 119M
Jun 13, 2024 - 10:59 PM EDT / 2024.06.14 0259 UTC
Wind: from the W (270 degrees) at 10 MPH (9 KT):0
Visibility: 10 mile(s):0
Sky conditions: clear
Temperature: 102.0 F (38.9 C)
Dew Point: 34.0 F (1.1 C)
Relative Humidity: 9%
Pressure (altimeter): 29.69 in. Hg (1005 hPa)
ob: KBLH 140259Z AUTO 27009KT 10SM CLR 39/01 A2969 RMK AO2 WSHFT 0239 T03890011
cycle: 3

Station Type Date Time Source
KBLH TAF 2024/06/14 02:21 UTC NOAA